Aviation Digital Data Service (ADDS)

Output produced by METARs form (1129 UTC 25 June 2019)
found at http://www.aviationweather.gov/metar/data/
 
Forecast for: ZSJN (JINAN YAOQIANG , CN)
Text: TAF ZSJN 250905Z 2512/2612 18003MPS 5000 HZ NSC TX35/06Z TN20/21Z
Forecast period: 1200 UTC 25 June 2019 to 1200 UTC 26 June 2019
Forecast type: FROM: standard forecast or significant change
Winds: from the S (180 degrees) at 7 MPH (6 knots; 3.1 m/s)
Visibility: 3 miles (5 km)
Ceiling: unknown
Clouds: missing
Weather: HZ  (haze)